Pagrindinis puslapis
METAR-TAF:

METAR-TAF

Oro uostai :

Bender Abasas, Iranas

platuma: 27-13N, ilguma: 056-22E, Aukštis: 10 m

Dabartinis oras

Ataskaita buvo paskelbta 23 minutes, ne 20:30 UTC
Vėjas 6 kt iš Pietų/Pietvakarių
Temperatūra 32°C
Drėgmė 79%
Slėgis 997 hPa
Matomumas: 4500 m
migla

METAR: OIKB 172030Z 20006KT 4500 HZ NSC 32/28 Q0996 A2943

Laikas: 01:23 (20:53 UTC)

Prognozė

Ataskaita buvo paskelbta 3 valandos ir 43 minutes, ne 17:10 UTC
Prognozė galioja nuo 17 metu 18 UTC su 18 metu 24 UTC
Vėjas 10 kt iš Vakarų/Pietvakarių
Matomumas: 4500 m
migla
Laikinai
nuo 17 metu 22 UTC su 18 metu 06 UTC
Vėjas 6 kt iš Šiaurės/Šiaurės Vakarų
Matomumas: 3000 m
Laikinai
nuo 18 metu 11 UTC su 18 metu 16 UTC
Vėjas 18 kt iš Vakarų/Pietvakarių
Tapsmas
nuo 18 metu 22 UTC su 18 metu 24 UTC
Vėjas 6 kt iš Šiaurės/Šiaurės Vakarų
Matomumas: 3000 m

TAF: OIKB 171710Z 1718/1824 24010KT 4500 HZ NSC TEMPO 1722/1806 34006KT 3000 BR/HZ TEMPO 1811/1816 24018KT BECMG 1822/1824 34006KT 3000 BR/HZ

Orai ataskaitas ir orų prognozės (METAR, TAF).

turimą stotys yra geltonos ir raudonos taškus žemėlapyje.

Perkelti pele per norėdami pamatyti stoties vardą.

Tada spustelėkite, norėdami matyti oro stebėjimo ir prognozės.

Norėdami pakeisti žemėlapį: spustelėkite ant žalios mygtukų su juodo kryžiaus žemyn,; žalią mygtuką su brūkšneliu, jei norite nutolinti; arba žalių rodyklių gretimoms žemėlapius.


METAR-TAF: